createdAt,value
2022-08-03T00:05:11.481Z,11.71394105803759
2022-08-03T00:20:27.454Z,11.832849198516143
2022-08-03T00:35:50.791Z,12.127957539310879
2022-08-03T00:51:01.391Z,11.901018075007803
2022-08-03T01:06:18.393Z,11.847029971653516
2022-08-03T01:21:34.336Z,12.314606264289212
2022-08-03T01:36:50.294Z,12.53580080636217
2022-08-03T01:52:06.305Z,12.090552172255379
2022-08-03T02:07:23.226Z,12.529777745093044
2022-08-03T02:22:39.253Z,12.78608760530281
2022-08-03T02:23:19.065Z,12.78608760530281
2022-08-03T02:37:56.173Z,12.432250485813164
2022-08-03T02:53:13.191Z,12.358144165512044
2022-08-03T03:08:31.137Z,12.608883179970624
2022-08-03T03:23:48.103Z,12.727233968264903
2022-08-03T03:39:15.955Z,12.667480828930058
2022-08-03T03:54:20.044Z,12.611586127088685
2022-08-03T04:09:37.017Z,12.648849361690937
2022-08-03T04:24:52.982Z,12.94718497396399
2022-08-03T04:40:09.952Z,12.624896724226389
2022-08-03T04:55:44.313Z,13.413647287434458
2022-08-03T05:10:44.885Z,13.645107691698694
2022-08-03T05:26:00.853Z,13.333147979691892
2022-08-03T05:41:20.420Z,13.268078826539385
2022-08-03T05:56:33.771Z,12.91233752643527
2022-08-03T06:11:49.758Z,13.30220706104802
2022-08-03T06:27:06.695Z,13.169037582451281
2022-08-03T06:42:23.687Z,13.483575002603805
2022-08-03T06:57:40.627Z,13.555512204390942
2022-08-03T07:12:57.007Z,13.591850481909686
2022-08-03T07:28:12.560Z,13.338457865642276
2022-08-03T07:43:28.565Z,13.351485185498712
2022-08-03T07:58:45.492Z,13.31441881295937
2022-08-03T08:14:01.484Z,13.111818807883962
2022-08-03T08:29:18.425Z,13.160923123825347
2022-08-03T08:44:35.429Z,12.526295944339484
2022-08-03T08:59:55.728Z,12.922127530588511
2022-08-03T09:15:17.084Z,13.080466857755855
2022-08-03T09:30:33.231Z,13.080466857755855
2022-08-03T09:45:40.298Z,13.084523812662303
2022-08-03T10:00:57.360Z,12.91109728019367
2022-08-03T10:16:22.945Z,13.398876407948384
2022-08-03T10:31:31.170Z,13.064808975254493
2022-08-03T10:46:48.175Z,13.22481693616764
2022-08-03T11:02:05.147Z,13.345246149369785
2022-08-03T11:17:21.076Z,13.163472216329206
2022-08-03T11:32:37.086Z,12.56015071584236
2022-08-03T11:47:53.028Z,12.02444475067103
2022-08-03T12:03:10.070Z,12.259191550351192
2022-08-03T12:18:26.963Z,12.168815557017354
2022-08-03T12:33:43.939Z,12.065400821216969
2022-08-03T12:48:59.999Z,12.171880009884175
2022-08-03T13:04:18.404Z,11.60973142249439
2022-08-03T13:19:32.854Z,11.75575471494307
2022-08-03T13:34:48.840Z,11.750693649144784
2022-08-03T13:50:04.929Z,12.54690734217815
2022-08-03T14:05:21.779Z,12.453161397180715
2022-08-03T14:20:50.330Z,12.372949634003552
2022-08-03T14:35:55.729Z,12.114392064379762
2022-08-03T14:51:11.706Z,12.696061991662456
2022-08-03T15:06:28.682Z,12.144493573900629
2022-08-03T15:21:46.990Z,11.936598824029184
2022-08-03T15:37:00.620Z,12.380197127784275
2022-08-03T15:52:16.621Z,12.628244691181257
2022-08-03T16:07:33.568Z,12.404519074164671
2022-08-03T16:22:50.588Z,12.303948880680409
2022-08-03T16:38:10.402Z,12.614076238433123
2022-08-03T16:53:51.715Z,12.702757659815386
2022-08-03T17:08:40.502Z,12.283838377382304
2022-08-03T17:23:56.471Z,12.037347519363943
2022-08-03T17:39:12.482Z,10.481471776409425
2022-08-03T17:54:28.417Z,11.038016297641583
2022-08-03T18:10:03.526Z,12.465382107319662
2022-08-03T18:25:07.502Z,12.500595994796452
2022-08-03T18:40:20.987Z,13.29784324795109
2022-08-03T18:55:35.763Z,12.256067634037326
2022-08-03T19:11:00.585Z,11.86837995585575
2022-08-03T19:26:30.643Z,12.149275324456832
2022-08-03T19:41:24.210Z,12.80878097066685
2022-08-03T19:56:40.204Z,13.265150916197706
2022-08-03T20:11:58.147Z,13.00634406059202
2022-08-03T20:27:15.084Z,12.83505292204749
2022-08-03T20:42:32.089Z,13.567633874844606
2022-08-03T20:57:49.120Z,13.469396141994316
2022-08-03T21:13:15.880Z,13.405537073712036
2022-08-03T21:28:24.664Z,13.964521427433768
2022-08-03T21:43:36.976Z,14.33102162464207
2022-08-03T21:58:53.927Z,14.38419471645859
2022-08-03T22:14:11.909Z,14.590890889669225
2022-08-03T22:29:28.843Z,14.71875240460845
2022-08-03T22:44:44.849Z,14.459663153325268
2022-08-03T23:00:00.772Z,14.62255350324575
2022-08-03T23:15:17.778Z,14.596670020776969
2022-08-03T23:30:33.704Z,14.524645059412197
2022-08-03T23:45:49.716Z,13.856490137757248
